Time;durP1;ratioP1;P1;durP2;ratioP2;P2;SDS_P1;SDS_P2;PMS_P1;PMS_P2;Temp;Humidity;BMP_temperature;BMP_pressure;BME280_temperature;BME280_humidity;BME280_pressure;Samples;Min_cycle;Max_cycle;Signal;HPM_P1;HPM_P2
2022/11/16 00:02:12;;;;;;;;;;;;;;;-143.57;100.00;51271.19;5098354;27;19935;-76
2022/11/16 00:04:39;;;;;;;;;;;;;;;-143.57;100.00;51287.09;5082626;28;19935;-75
2022/11/16 00:07:06;;;;;;;;;;;;;;;-143.57;100.00;51299.00;5063988;28;20469;-75
2022/11/16 00:09:34;;;;;;;;;;;;;;;-143.57;100.00;51308.94;5081363;28;19951;-75
2022/11/16 00:12:03;;;;;;;;;;;;;;;-143.57;100.00;51299.00;5066434;28;19993;-76
2022/11/16 00:14:31;;;;;;;;;;;;;;;-143.57;100.00;51295.03;5063822;28;19932;-76
2022/11/16 00:16:58;;;;;;;;;;;;;;;-143.57;100.00;51308.94;5081472;28;20369;-74
2022/11/16 00:19:26;;;;;;;;;;;;;;;-143.57;100.00;51326.84;5082965;28;19931;-74
2022/11/16 00:21:53;;;;;;;;;;;;;;;-143.57;100.00;51295.03;5050436;28;19957;-74
2022/11/16 00:24:21;;;;;;;;;;;;;;;-143.57;100.00;51287.09;5063838;28;19932;-75
2022/11/16 00:26:48;;;;;;;;;;;;;;;-143.57;100.00;51287.09;5065143;28;20453;-75
2022/11/16 00:29:17;;;;;;;;;;;;;;;-143.57;100.00;51275.16;5066196;28;20014;-74
2022/11/16 00:31:44;;;;;;;;;;;;;;;-143.57;100.00;51283.09;5066533;28;20344;-74
2022/11/16 00:34:11;;;;;;;;;;;;;;;-143.57;100.00;51306.97;5082282;28;19924;-74
2022/11/16 00:36:38;;;;;;;;;;;;;;;-143.57;100.00;51265.22;5049290;28;20555;-74
2022/11/16 00:39:05;;;;;;;;;;;;;;;-143.57;100.00;51299.00;5082109;28;19935;-75
2022/11/16 00:41:32;;;;;;;;;;;;;;;-143.57;100.00;51303.00;5065725;28;19940;-74
2022/11/16 00:43:58;;;;;;;;;;;;;;;-143.57;100.00;51273.16;5063984;28;19985;-74
2022/11/16 00:46:25;;;;;;;;;;;;;;;-143.57;100.00;51291.06;5065449;28;19924;-75
2022/11/16 00:48:52;;;;;;;;;;;;;;;-143.57;100.00;51275.16;5066031;28;19968;-75
2022/11/16 00:51:19;;;;;;;;;;;;;;;-143.57;100.00;51301.00;5066652;28;20428;-74
2022/11/16 00:53:46;;;;;;;;;;;;;;;-143.57;100.00;51291.06;5066058;28;20039;-75
2022/11/16 00:56:12;;;;;;;;;;;;;;;-143.57;100.00;51330.81;5064426;28;19932;-77
2022/11/16 00:58:42;;;;;;;;;;;;;;;-143.57;100.00;51299.00;5065451;28;20463;-74
2022/11/16 01:01:10;;;;;;;;;;;;;;;-143.57;100.00;51279.13;5066487;28;19928;-74
2022/11/16 01:03:37;;;;;;;;;;;;;;;-143.57;100.00;51291.06;5063252;28;20318;-75
2022/11/16 01:06:06;;;;;;;;;;;;;;;-143.57;100.00;51299.00;5063108;28;20001;-77
2022/11/16 01:08:34;;;;;;;;;;;;;;;-143.57;100.00;51295.03;5062905;28;19956;-75
2022/11/16 01:13:47;;;;;;;;;;;;;;;-143.57;100.00;51322.88;5063851;28;19935;-74
2022/11/16 01:16:18;;;;;;;;;;;;;;;-143.57;100.00;51287.09;5082978;28;20345;-75
2022/11/16 01:18:52;;;;;;;;;;;;;;;-143.57;100.00;51283.09;5084447;28;19940;-75
2022/11/16 01:21:19;;;;;;;;;;;;;;;-143.57;100.00;51287.09;5065823;28;19938;-75
2022/11/16 01:23:46;;;;;;;;;;;;;;;-143.57;100.00;51320.88;5068979;28;19931;-74
2022/11/16 01:26:13;;;;;;;;;;;;;;;-143.57;100.00;51285.09;5089588;28;20315;-74
2022/11/16 01:28:41;;;;;;;;;;;;;;;-143.57;100.00;51279.13;5069443;28;20014;-75
2022/11/16 01:31:09;;;;;;;;;;;;;;;-143.57;100.00;51287.09;5068157;28;20017;-74
2022/11/16 01:33:37;;;;;;;;;;;;;;;-143.57;100.00;51306.97;5071412;28;19981;-74
2022/11/16 01:36:13;;;;;;;;;;;;;;;-143.57;100.00;51263.22;5068693;28;19955;-74
2022/11/16 01:38:41;;;;;;;;;;;;;;;-143.57;100.00;51287.09;5070357;28;20153;-75
2022/11/16 01:41:11;;;;;;;;;;;;;;;-143.57;100.00;51283.09;5069528;28;19932;-75
2022/11/16 01:43:49;;;;;;;;;;;;;;;-143.57;100.00;51338.78;5068832;28;20180;-75
2022/11/16 01:46:16;;;;;;;;;;;;;;;-143.57;100.00;51310.94;5048457;28;19950;-75
2022/11/16 01:48:44;;;;;;;;;;;;;;;-143.57;100.00;51291.06;5066822;28;19930;-74
2022/11/16 01:51:11;;;;;;;;;;;;;;;-143.57;100.00;51312.94;5066626;28;19931;-74
2022/11/16 01:53:38;;;;;;;;;;;;;;;-143.57;100.00;51303.00;5103196;27;19932;-75
2022/11/16 01:56:05;;;;;;;;;;;;;;;-143.57;100.00;51326.84;5085682;28;19928;-74
2022/11/16 01:58:41;;;;;;;;;;;;;;;-143.57;100.00;51314.91;5065385;28;19932;-75
2022/11/16 02:01:13;;;;;;;;;;;;;;;-143.57;100.00;51306.97;5067415;28;19932;-74
2022/11/16 02:03:46;;;;;;;;;;;;;;;-143.57;100.00;51306.97;5065835;28;19932;-74
2022/11/16 02:06:19;;;;;;;;;;;;;;;-143.57;100.00;51306.97;5066846;28;20416;-75
2022/11/16 02:11:49;;;;;;;;;;;;;;;-143.57;100.00;51285.09;5106266;27;19928;-75
2022/11/16 02:14:28;;;;;;;;;;;;;;;-143.57;100.00;51306.97;5067048;28;19923;-75
2022/11/16 02:17:00;;;;;;;;;;;;;;;-143.57;100.00;51293.03;5063497;28;19927;-75
2022/11/16 02:19:35;;;;;;;;;;;;;;;-143.57;100.00;51279.13;5066306;28;20015;-75
2022/11/16 02:22:19;;;;;;;;;;;;;;;-143.57;100.00;51287.09;5085493;28;19924;-77
2022/11/16 02:25:01;;;;;;;;;;;;;;;-143.57;100.00;51314.91;5084891;28;19928;-75
2022/11/16 02:27:31;;;;;;;;;;;;;;;-143.57;100.00;51287.09;5066633;28;19932;-75
2022/11/16 02:29:57;;;;;;;;;;;;;;;-143.57;100.00;51295.03;5066345;28;19924;-76
2022/11/16 02:32:31;;;;;;;;;;;;;;;-143.57;100.00;51295.03;5067804;28;20354;-74
2022/11/16 02:35:05;;;;;;;;;;;;;;;-143.57;100.00;51299.00;5064420;28;19967;-75
2022/11/16 02:37:35;;;;;;;;;;;;;;;-143.57;100.00;51299.00;5066991;28;20393;-77
2022/11/16 02:40:06;;;;;;;;;;;;;;;-143.57;100.00;51271.19;5084900;28;19924;-77
2022/11/16 02:42:48;;;;;;;;;;;;;;;-143.57;100.00;51291.06;5084094;28;20340;-77
2022/11/16 02:45:20;;;;;;;;;;;;;;;-143.57;100.00;51318.88;5066141;28;19935;-76
2022/11/16 02:47:51;;;;;;;;;;;;;;;-143.57;100.00;51314.91;5080852;28;19932;-77
2022/11/16 02:50:19;;;;;;;;;;;;;;;-143.57;100.00;51306.97;5051092;28;20397;-77
2022/11/16 02:52:46;;;;;;;;;;;;;;;-143.57;100.00;51287.09;5067376;28;19993;-77
2022/11/16 02:55:13;;;;;;;;;;;;;;;-143.57;100.00;51330.81;5082831;28;20010;-75
2022/11/16 02:57:48;;;;;;;;;;;;;;;-143.57;100.00;51287.09;5068044;28;19928;-74
2022/11/16 03:00:42;;;;;;;;;;;;;;;-143.57;100.00;51299.00;5064471;28;19928;-74
2022/11/16 03:03:10;;;;;;;;;;;;;;;-143.57;100.00;51326.84;5090652;27;19928;-77
2022/11/16 03:05:40;;;;;;;;;;;;;;;-143.57;100.00;51287.09;5067214;28;20149;-75
2022/11/16 03:08:12;;;;;;;;;;;;;;;-143.57;100.00;51299.00;5067910;28;20410;-77
2022/11/16 03:13:30;;;;;;;;;;;;;;;-143.57;100.00;51267.19;5064939;28;20943;-77
2022/11/16 03:15:59;;;;;;;;;;;;;;;-143.57;100.00;51263.22;5066746;28;19948;-77
2022/11/16 03:18:27;;;;;;;;;;;;;;;-143.57;100.00;51310.94;5097035;27;19930;-77
2022/11/16 03:21:08;;;;;;;;;;;;;;;-143.57;100.00;51275.16;5065105;28;19924;-77
2022/11/16 03:23:35;;;;;;;;;;;;;;;-143.57;100.00;51306.97;5064972;28;20328;-77
2022/11/16 03:26:05;;;;;;;;;;;;;;;-143.57;100.00;51291.06;5066697;28;20433;-77
2022/11/16 03:28:35;;;;;;;;;;;;;;;-143.57;100.00;51295.03;5065875;28;20011;-77
2022/11/16 03:31:15;;;;;;;;;;;;;;;-143.57;100.00;51306.97;5082743;28;20007;-77
2022/11/16 03:33:44;;;;;;;;;;;;;;;-143.57;100.00;51310.94;5050274;28;20412;-77
2022/11/16 03:36:25;;;;;;;;;;;;;;;-143.57;100.00;51306.97;5065490;28;19964;-77
2022/11/16 03:38:53;;;;;;;;;;;;;;;-143.57;100.00;51314.91;5065434;28;19928;-77
2022/11/16 03:41:21;;;;;;;;;;;;;;;-143.57;100.00;51287.09;5065637;28;19932;-77
2022/11/16 03:43:49;;;;;;;;;;;;;;;-143.57;100.00;51330.81;5064832;28;20277;-74
2022/11/16 03:46:17;;;;;;;;;;;;;;;-143.57;100.00;51310.94;5064111;28;19928;-74
2022/11/16 03:48:44;;;;;;;;;;;;;;;-143.57;100.00;51330.81;5051055;28;20263;-77
2022/11/16 03:51:19;;;;;;;;;;;;;;;-143.57;100.00;51322.88;5064331;28;20493;-77
2022/11/16 03:53:46;;;;;;;;;;;;;;;-143.57;100.00;51291.06;5067331;28;19928;-77
2022/11/16 03:56:13;;;;;;;;;;;;;;;-143.57;100.00;51303.00;5082421;28;19928;-76
2022/11/16 03:58:40;;;;;;;;;;;;;;;-143.57;100.00;51330.81;5081883;28;19928;-77
2022/11/16 04:01:06;;;;;;;;;;;;;;;-143.57;100.00;51277.16;5066059;28;20448;-77
2022/11/16 04:03:33;;;;;;;;;;;;;;;-143.57;100.00;51326.84;5097613;28;19924;-77
2022/11/16 04:25:48;;;;;;;;;;;;;;;-143.57;100.00;51310.94;5100065;27;19928;-76
2022/11/16 04:28:18;;;;;;;;;;;;;;;-143.57;100.00;51295.03;5049529;28;19985;-77
2022/11/16 04:39:14;;;;;;;;;;;;;;;-143.57;100.00;51314.91;5079812;28;19931;-77
2022/11/16 04:47:20;;;;;;;;;;;;;;;-143.57;100.00;51287.09;5100709;27;19967;-75
2022/11/16 04:49:46;;;;;;;;;;;;;;;-143.57;100.00;51279.13;5082512;28;19928;-74
2022/11/16 04:52:13;;;;;;;;;;;;;;;-143.57;100.00;51283.09;5079899;28;20183;-75
2022/11/16 04:54:41;;;;;;;;;;;;;;;-143.57;100.00;51303.00;5063874;28;19928;-74
2022/11/16 04:57:08;;;;;;;;;;;;;;;-143.57;100.00;51318.88;5097612;28;19951;-74
2022/11/16 04:59:34;;;;;;;;;;;;;;;-143.57;100.00;51310.94;5064712;28;19928;-74
2022/11/16 05:02:08;;;;;;;;;;;;;;;-143.57;100.00;51314.91;5061755;28;19934;-74
2022/11/16 05:04:49;;;;;;;;;;;;;;;-143.57;100.00;51291.06;5050813;28;19935;-76
2022/11/16 05:07:19;;;;;;;;;;;;;;;-143.57;100.00;51283.09;5051583;28;20001;-80
2022/11/16 05:09:48;;;;;;;;;;;;;;;-143.57;100.00;51318.88;5050936;28;19924;-72
2022/11/16 05:12:18;;;;;;;;;;;;;;;-143.57;100.00;51306.97;5080563;28;19924;-72
2022/11/16 05:14:48;;;;;;;;;;;;;;;-143.57;100.00;51334.78;5081799;28;19935;-72
2022/11/16 05:17:16;;;;;;;;;;;;;;;-143.57;100.00;51314.91;5063883;28;19971;-72
2022/11/16 05:22:34;;;;;;;;;;;;;;;-143.57;100.00;51350.69;5097101;28;21099;-71
2022/11/16 05:25:02;;;;;;;;;;;;;;;-143.57;100.00;51291.06;5064029;28;19928;-72
2022/11/16 05:27:29;;;;;;;;;;;;;;;-143.57;100.00;51306.97;5067185;28;20038;-72
2022/11/16 05:29:56;;;;;;;;;;;;;;;-143.57;100.00;51283.09;5065032;28;20222;-73
2022/11/16 05:32:23;;;;;;;;;;;;;;;-143.57;100.00;51334.78;5063706;28;20030;-72
2022/11/16 05:34:54;;;;;;;;;;;;;;;-143.57;100.00;51314.91;5064042;28;19989;-73
2022/11/16 05:37:25;;;;;;;;;;;;;;;-143.57;100.00;51342.75;5096107;28;19975;-73
2022/11/16 05:39:53;;;;;;;;;;;;;;;-143.57;100.00;51310.94;5047064;28;20405;-73
2022/11/16 05:42:25;;;;;;;;;;;;;;;-143.57;100.00;51306.97;5064472;28;19924;-73
2022/11/16 05:44:52;;;;;;;;;;;;;;;-143.57;100.00;51306.97;5065590;28;19928;-73
2022/11/16 05:47:19;;;;;;;;;;;;;;;-143.57;100.00;51299.00;5082973;28;20006;-73
2022/11/16 05:49:46;;;;;;;;;;;;;;;-143.57;100.00;51306.97;5062772;28;19932;-72
2022/11/16 05:52:13;;;;;;;;;;;;;;;-143.57;100.00;51314.91;5067494;28;19924;-73
2022/11/16 05:54:43;;;;;;;;;;;;;;;-143.57;100.00;51279.13;5064497;28;20680;-73
2022/11/16 05:57:10;;;;;;;;;;;;;;;-143.57;100.00;51283.09;5080220;28;19935;-73
2022/11/16 05:59:37;;;;;;;;;;;;;;;-143.57;100.00;51303.00;5062848;28;20644;-73
2022/11/16 06:02:04;;;;;;;;;;;;;;;-143.57;100.00;51283.09;5062667;28;19967;-73
2022/11/16 06:04:33;;;;;;;;;;;;;;;-143.57;100.00;51287.09;5065014;28;19993;-73
2022/11/16 06:06:59;;;;;;;;;;;;;;;-143.57;100.00;51326.84;5066711;28;20005;-73
2022/11/16 06:09:30;;;;;;;;;;;;;;;-143.57;100.00;51265.22;5066743;28;19928;-73
2022/11/16 06:12:04;;;;;;;;;;;;;;;-143.57;100.00;51318.88;5066320;28;19999;-73
2022/11/16 06:14:31;;;;;;;;;;;;;;;-143.57;100.00;51326.84;5049789;28;20421;-73
2022/11/16 06:16:57;;;;;;;;;;;;;;;-143.57;100.00;51303.00;5066466;28;19931;-73
2022/11/16 06:19:24;;;;;;;;;;;;;;;-143.57;100.00;51304.97;5053205;28;20116;-73
2022/11/16 06:21:58;;;;;;;;;;;;;;;-143.57;100.00;51310.94;5028301;28;19924;-73
2022/11/16 06:24:26;;;;;;;;;;;;;;;-143.57;100.00;51299.00;5039926;28;20041;-73
2022/11/16 06:26:53;;;;;;;;;;;;;;;-143.57;100.00;51291.06;5041265;28;20023;-72
2022/11/16 06:29:21;;;;;;;;;;;;;;;-143.57;100.00;51346.72;5043782;28;19933;-73
2022/11/16 06:31:49;;;;;;;;;;;;;;;-143.57;100.00;51326.84;5043636;28;19928;-73
2022/11/16 06:34:16;;;;;;;;;;;;;;;-143.57;100.00;51281.13;5041636;28;19972;-73
2022/11/16 06:36:43;;;;;;;;;;;;;;;-143.57;100.00;51326.84;5043404;28;20557;-73
2022/11/16 06:39:11;;;;;;;;;;;;;;;-143.57;100.00;51318.88;5041813;28;19936;-73
2022/11/16 06:41:39;;;;;;;;;;;;;;;-143.57;100.00;51304.97;5041487;28;19936;-73
2022/11/16 06:44:09;;;;;;;;;;;;;;;-143.57;100.00;51291.06;5041639;28;19932;-73
2022/11/16 06:46:40;;;;;;;;;;;;;;;-143.57;100.00;51326.84;5041702;28;19982;-72
2022/11/16 06:49:07;;;;;;;;;;;;;;;-143.57;100.00;51338.78;5065114;28;19963;-72
2022/11/16 06:51:34;;;;;;;;;;;;;;;-143.57;100.00;51295.03;5041260;28;19929;-73
2022/11/16 06:54:01;;;;;;;;;;;;;;;-143.57;100.00;51314.91;5042310;28;19976;-73
2022/11/16 06:56:28;;;;;;;;;;;;;;;-143.57;100.00;51326.84;5078422;28;20121;-73
2022/11/16 06:58:56;;;;;;;;;;;;;;;-143.57;100.00;51316.91;5048133;28;20019;-73
2022/11/16 07:01:26;;;;;;;;;;;;;;;-143.57;100.00;51301.00;5045609;28;19931;-73
2022/11/16 07:03:58;;;;;;;;;;;;;;;-143.57;100.00;51330.81;5047928;28;20015;-73
2022/11/16 07:06:26;;;;;;;;;;;;;;;-143.57;100.00;51318.88;5065713;28;19929;-73
2022/11/16 07:08:53;;;;;;;;;;;;;;;-143.57;100.00;51297.03;5045344;28;19935;-73
2022/11/16 07:11:24;;;;;;;;;;;;;;;-143.57;100.00;51303.00;5080606;28;20153;-73
2022/11/16 07:13:51;;;;;;;;;;;;;;;-143.57;100.00;51334.78;5045924;28;20192;-73
2022/11/16 07:16:18;;;;;;;;;;;;;;;-143.57;100.00;51354.66;5045164;28;19925;-73
2022/11/16 07:18:51;;;;;;;;;;;;;;;-143.57;100.00;51328.81;5051688;28;19934;-73
2022/11/16 07:21:18;;;;;;;;;;;;;;;-143.57;100.00;51314.91;5071082;28;19928;-73
2022/11/16 07:23:45;;;;;;;;;;;;;;;-143.57;100.00;51314.91;5071277;28;19977;-73
2022/11/16 07:26:17;;;;;;;;;;;;;;;-143.57;100.00;51336.78;5090166;28;19932;-73
2022/11/16 07:28:54;;;;;;;;;;;;;;;-143.57;100.00;51318.88;5070449;28;20023;-73
2022/11/16 07:31:24;;;;;;;;;;;;;;;-143.57;100.00;51314.91;5072434;28;20321;-73
2022/11/16 07:34:11;;;;;;;;;;;;;;;-143.57;100.00;51332.81;5087184;28;19928;-73
2022/11/16 07:36:52;;;;;;;;;;;;;;;-143.57;100.00;51295.03;5073494;28;19959;-73
2022/11/16 07:41:43;;;;;;;;;;;;;;;-143.57;100.00;51320.88;5088487;27;19924;-73
2022/11/16 07:44:23;;;;;;;;;;;;;;;-143.57;100.00;51318.88;5089137;28;19935;-71
2022/11/16 07:47:02;;;;;;;;;;;;;;;-143.57;100.00;51306.97;5094405;28;19931;-70
2022/11/16 07:49:30;;;;;;;;;;;;;;;-143.57;100.00;51303.00;5091823;28;19939;-70
2022/11/16 07:52:02;;;;;;;;;;;;;;;-143.57;100.00;51342.75;5092652;28;19931;-74
2022/11/16 07:54:45;;;;;;;;;;;;;;;-143.57;100.00;51287.09;5092329;28;19924;-75
2022/11/16 07:57:12;;;;;;;;;;;;;;;-143.57;100.00;51338.78;5079704;28;20443;-75
2022/11/16 07:59:40;;;;;;;;;;;;;;;-143.57;100.00;51310.94;5093130;28;19943;-73
2022/11/16 08:02:08;;;;;;;;;;;;;;;-143.57;100.00;51310.94;5097434;28;19934;-72
2022/11/16 08:04:37;;;;;;;;;;;;;;;-143.57;100.00;51322.88;5096755;28;19932;-71
2022/11/16 08:07:04;;;;;;;;;;;;;;;-143.57;100.00;51342.75;5123222;27;19935;-71
2022/11/16 08:09:38;;;;;;;;;;;;;;;-143.57;100.00;51330.81;5094142;28;20013;-71
2022/11/16 08:12:08;;;;;;;;;;;;;;;-143.57;100.00;51320.88;5095125;28;20038;-71
2022/11/16 08:14:35;;;;;;;;;;;;;;;-143.57;100.00;51303.00;5094338;28;19928;-71
2022/11/16 08:17:03;;;;;;;;;;;;;;;-143.57;100.00;51326.84;5093555;28;20102;-71
2022/11/16 08:19:30;;;;;;;;;;;;;;;-143.57;100.00;51338.78;5097259;28;19928;-71
2022/11/16 08:21:57;;;;;;;;;;;;;;;-143.57;100.00;51306.97;5093397;28;19989;-71
2022/11/16 08:24:27;;;;;;;;;;;;;;;-143.57;100.00;51322.88;5118368;27;20034;-71
2022/11/16 08:26:56;;;;;;;;;;;;;;;-143.57;100.00;51330.81;5092813;28;19920;-71
2022/11/16 08:29:22;;;;;;;;;;;;;;;-143.57;100.00;51324.84;5098218;28;19932;-70
2022/11/16 08:31:50;;;;;;;;;;;;;;;-143.57;100.00;51352.69;5092250;28;19957;-69
2022/11/16 08:34:20;;;;;;;;;;;;;;;-143.57;100.00;51299.00;5097418;28;20304;-69
2022/11/16 08:36:50;;;;;;;;;;;;;;;-143.57;100.00;51328.81;5096424;28;20527;-69
2022/11/16 08:39:23;;;;;;;;;;;;;;;-143.57;100.00;51318.88;5093707;28;19932;-69
2022/11/16 08:41:49;;;;;;;;;;;;;;;-143.57;100.00;51318.88;5093466;28;20312;-71
2022/11/16 08:44:16;;;;;;;;;;;;;;;-143.57;100.00;51334.78;5095510;28;19928;-71
2022/11/16 08:46:48;;;;;;;;;;;;;;;-143.57;100.00;51299.00;5094354;28;19955;-71
2022/11/16 08:49:28;;;;;;;;;;;;;;;-143.57;100.00;51346.72;5094409;28;19924;-71
2022/11/16 08:51:56;;;;;;;;;;;;;;;-143.57;100.00;51324.84;5088902;28;20124;-72
2022/11/16 08:54:23;;;;;;;;;;;;;;;-143.57;100.00;51310.94;5087024;28;20386;-71
2022/11/16 08:56:50;;;;;;;;;;;;;;;-143.57;100.00;51314.91;5086725;28;19932;-73
2022/11/16 08:59:17;;;;;;;;;;;;;;;-143.57;100.00;51338.78;5081148;28;19973;-72
2022/11/16 09:01:51;;;;;;;;;;;;;;;-143.57;100.00;51295.03;5083821;28;20280;-73
2022/11/16 09:04:17;;;;;;;;;;;;;;;-143.57;100.00;51366.59;5081019;28;19923;-73
2022/11/16 09:06:44;;;;;;;;;;;;;;;-143.57;100.00;51310.94;5091435;28;19932;-77
2022/11/16 09:09:11;;;;;;;;;;;;;;;-143.57;100.00;51283.09;5094799;28;19919;-77
2022/11/16 09:11:37;;;;;;;;;;;;;;;-143.57;100.00;51299.00;5092789;28;19925;-72
2022/11/16 09:14:04;;;;;;;;;;;;;;;-143.57;100.00;51330.81;5083037;28;20661;-71
2022/11/16 09:16:48;;;;;;;;;;;;;;;-143.57;100.00;51308.94;5084886;28;19977;-72
2022/11/16 09:19:15;;;;;;;;;;;;;;;-143.57;100.00;51332.81;5082330;28;19928;-72
2022/11/16 09:21:43;;;;;;;;;;;;;;;-143.57;100.00;51334.78;5080802;28;19924;-72
2022/11/16 09:24:10;;;;;;;;;;;;;;;-143.57;100.00;51289.06;5083214;28;19955;-72
2022/11/16 09:26:37;;;;;;;;;;;;;;;-143.57;100.00;51330.81;5082683;28;19924;-72
2022/11/16 09:29:03;;;;;;;;;;;;;;;-143.57;100.00;51316.91;5084537;28;19924;-72
2022/11/16 09:31:33;;;;;;;;;;;;;;;-143.57;100.00;51322.88;5076612;28;19935;-73
2022/11/16 09:34:00;;;;;;;;;;;;;;;-143.57;100.00;51310.94;5102541;27;20026;-71
2022/11/16 09:36:27;;;;;;;;;;;;;;;-143.57;100.00;51342.75;5082047;28;20655;-71
2022/11/16 09:38:54;;;;;;;;;;;;;;;-143.57;100.00;51338.78;5082267;28;19924;-70
2022/11/16 09:41:43;;;;;;;;;;;;;;;-143.57;100.00;51338.78;5076430;28;19924;-70
2022/11/16 09:44:21;;;;;;;;;;;;;;;-143.57;100.00;51306.97;5079579;28;20306;-71
2022/11/16 09:46:51;;;;;;;;;;;;;;;-143.57;100.00;51310.94;5079860;28;19928;-70
2022/11/16 09:49:20;;;;;;;;;;;;;;;-143.57;100.00;51291.06;5083726;28;20027;-71
2022/11/16 09:51:49;;;;;;;;;;;;;;;-143.57;100.00;51322.88;5077365;28;19968;-71
2022/11/16 09:54:36;;;;;;;;;;;;;;;-143.57;100.00;51334.78;5077899;28;19931;-71
2022/11/16 09:57:06;;;;;;;;;;;;;;;-143.57;100.00;51326.84;5082384;28;20378;-71
2022/11/16 09:59:46;;;;;;;;;;;;;;;-143.57;100.00;51330.81;5075092;28;19997;-71
2022/11/16 10:02:26;;;;;;;;;;;;;;;-143.57;100.00;51306.97;5078396;28;20734;-71
2022/11/16 10:05:01;;;;;;;;;;;;;;;-143.57;100.00;51310.94;5083448;28;20410;-71
2022/11/16 10:07:40;;;;;;;;;;;;;;;-143.57;100.00;51330.81;5072638;28;19939;-70
2022/11/16 10:10:29;;;;;;;;;;;;;;;-143.57;100.00;51328.81;5073770;28;19974;-70
2022/11/16 10:13:05;;;;;;;;;;;;;;;-143.57;100.00;51314.91;5076862;28;19954;-71
2022/11/16 10:15:34;;;;;;;;;;;;;;;-143.57;100.00;51346.72;5079877;28;20754;-71
2022/11/16 10:18:27;;;;;;;;;;;;;;;-143.57;100.00;51316.91;5080615;28;20592;-71
2022/11/16 10:21:06;;;;;;;;;;;;;;;-143.57;100.00;51303.00;5076273;28;19993;-70
2022/11/16 10:23:48;;;;;;;;;;;;;;;-143.57;100.00;51287.09;5075333;28;19936;-71
2022/11/16 10:26:24;;;;;;;;;;;;;;;-143.57;100.00;51334.78;5080717;28;19967;-71
2022/11/16 10:29:00;;;;;;;;;;;;;;;-143.57;100.00;51287.09;5073343;28;20066;-70
2022/11/16 10:31:50;;;;;;;;;;;;;;;-143.57;100.00;51320.88;5075060;28;20058;-71
2022/11/16 10:34:20;;;;;;;;;;;;;;;-143.57;100.00;51306.97;5064190;28;20004;-72
2022/11/16 10:36:47;;;;;;;;;;;;;;;-143.57;100.00;51291.06;5074499;28;20592;-72
2022/11/16 10:39:15;;;;;;;;;;;;;;;-143.57;100.00;51310.94;5107960;27;20529;-71
2022/11/16 10:41:44;;;;;;;;;;;;;;;-143.57;100.00;51318.88;5071483;28;20602;-71
2022/11/16 10:44:16;;;;;;;;;;;;;;;-143.57;100.00;51283.09;5075249;28;19962;-69
2022/11/16 10:46:45;;;;;;;;;;;;;;;-143.57;100.00;51310.94;5073609;28;20740;-70
2022/11/16 10:49:18;;;;;;;;;;;;;;;-143.57;100.00;51314.91;5075689;28;20723;-70
2022/11/16 10:51:44;;;;;;;;;;;;;;;-143.57;100.00;51330.81;5080723;28;21605;-74
2022/11/16 10:54:12;;;;;;;;;;;;;;;-143.57;100.00;51326.84;5078655;28;19927;-70
2022/11/16 10:56:41;;;;;;;;;;;;;;;-143.57;100.00;51328.81;5076645;28;20011;-72
2022/11/16 10:59:09;;;;;;;;;;;;;;;-143.57;100.00;51318.88;5080072;28;19924;-71
2022/11/16 11:01:37;;;;;;;;;;;;;;;-143.57;100.00;51306.97;5076659;28;19967;-70
2022/11/16 11:04:15;;;;;;;;;;;;;;;-143.57;100.00;51295.03;5083504;27;20715;-70
2022/11/16 11:06:42;;;;;;;;;;;;;;;-143.57;100.00;51299.00;5079322;28;19955;-71
2022/11/16 11:09:21;;;;;;;;;;;;;;;-143.57;100.00;51322.88;5078845;28;20013;-69
2022/11/16 11:14:56;;;;;;;;;;;;;;;-143.57;100.00;51322.88;5081296;28;19946;-70
2022/11/16 11:17:23;;;;;;;;;;;;;;;-143.57;100.00;51295.03;5073386;28;20235;-72
2022/11/16 11:20:00;;;;;;;;;;;;;;;-143.57;100.00;51310.94;5077721;28;19924;-71
2022/11/16 11:22:27;;;;;;;;;;;;;;;-143.57;100.00;51301.00;5078368;28;19931;-72
2022/11/16 11:24:54;;;;;;;;;;;;;;;-143.57;100.00;51316.91;5076482;28;19993;-71
2022/11/16 11:27:22;;;;;;;;;;;;;;;-143.57;100.00;51330.81;5078069;28;20001;-72
2022/11/16 11:29:51;;;;;;;;;;;;;;;-143.57;100.00;51299.00;5078138;28;20344;-72
2022/11/16 11:32:18;;;;;;;;;;;;;;;-143.57;99.99;51295.03;5079720;28;19980;-71
2022/11/16 11:34:51;;;;;;;;;;;;;;;-143.57;98.55;51312.94;5100702;27;19927;-73
2022/11/16 11:37:24;;;;;;;;;;;;;;;-143.57;100.00;51299.00;5080525;28;19924;-73
2022/11/16 11:40:10;;;;;;;;;;;;;;;-143.57;100.00;51301.00;5077662;28;19975;-72
2022/11/16 11:42:58;;;;;;;;;;;;;;;-143.57;99.00;51306.97;5076123;28;20539;-70
2022/11/16 11:45:45;;;;;;;;;;;;;;;-143.57;98.38;51314.91;5078390;28;20018;-71
2022/11/16 11:48:12;;;;;;;;;;;;;;;-143.57;97.69;51306.97;5076416;28;19928;-70
2022/11/16 11:50:56;;;;;;;;;;;;;;;-143.57;94.45;51326.84;5083745;28;19938;-70
2022/11/16 11:53:22;;;;;;;;;;;;;;;-143.57;94.54;51291.06;5079375;28;20652;-70
2022/11/16 11:55:57;;;;;;;;;;;;;;;-143.57;92.87;51267.19;5078421;28;19928;-70
2022/11/16 11:58:34;;;;;;;;;;;;;;;-143.57;66.31;51287.09;5078671;28;19949;-70
2022/11/16 12:01:08;;;;;;;;;;;;;;;-143.57;65.98;51291.06;5076444;28;19932;-73
2022/11/16 12:03:40;;;;;;;;;;;;;;;-143.57;66.13;51303.00;5080880;28;20016;-69
2022/11/16 12:06:26;;;;;;;;;;;;;;;-143.57;67.17;51310.94;5075572;28;20236;-70
2022/11/16 12:08:58;;;;;;;;;;;;;;;-143.57;67.82;51295.03;5079285;28;19928;-70
2022/11/16 12:11:35;;;;;;;;;;;;;;;-143.57;68.29;51289.06;5074206;28;21223;-70
2022/11/16 12:14:01;;;;;;;;;;;;;;;-143.57;66.71;51291.06;5080799;28;19924;-71
2022/11/16 12:16:37;;;;;;;;;;;;;;;-143.57;65.89;51310.94;5075008;28;20014;-71
2022/11/16 12:19:07;;;;;;;;;;;;;;;-143.57;65.46;51271.19;5075732;28;20011;-77
2022/11/16 12:21:43;;;;;;;;;;;;;;;-143.57;65.38;51306.97;5077157;28;19936;-70
2022/11/16 12:24:45;;;;;;;;;;;;;;;-143.57;65.28;51271.19;5074369;28;19932;-72
2022/11/16 12:27:12;;;;;;;;;;;;;;;-143.57;67.05;51306.97;5029743;28;19960;-72
2022/11/16 12:29:53;;;;;;;;;;;;;;;-143.57;68.39;51310.94;5071001;28;19985;-72
2022/11/16 12:32:20;;;;;;;;;;;;;;;-143.57;69.18;51306.97;5076772;28;20027;-71
2022/11/16 12:35:11;;;;;;;;;;;;;;;-143.57;69.39;51289.06;5081523;28;19932;-72
2022/11/16 12:37:41;;;;;;;;;;;;;;;-143.57;70.59;51314.91;5079547;28;19928;-71
2022/11/16 12:40:08;;;;;;;;;;;;;;;-143.57;71.31;51326.84;5092659;27;19936;-71
2022/11/16 12:42:40;;;;;;;;;;;;;;;-143.57;71.15;51306.97;5077594;28;19943;-73
2022/11/16 12:45:26;;;;;;;;;;;;;;;-143.57;71.00;51326.84;5078721;28;19951;-72
2022/11/16 12:48:01;;;;;;;;;;;;;;;-143.57;70.37;51275.16;5075136;28;20622;-71
2022/11/16 12:50:36;;;;;;;;;;;;;;;-143.57;72.34;51295.03;5079392;28;19924;-70
2022/11/16 12:53:03;;;;;;;;;;;;;;;-143.57;74.48;51312.94;5080284;28;19931;-72
2022/11/16 12:55:48;;;;;;;;;;;;;;;-143.57;76.60;51271.19;5085475;28;19936;-72
2022/11/16 12:58:24;;;;;;;;;;;;;;;-143.57;76.61;51287.09;5080051;28;19932;-72
2022/11/16 13:01:01;;;;;;;;;;;;;;;-143.57;76.76;51303.00;5085131;28;19992;-72
2022/11/16 13:03:34;;;;;;;;;;;;;;;-143.57;77.08;51322.88;5085608;27;19935;-72
2022/11/16 13:06:02;;;;;;;;;;;;;;;-143.57;77.24;51304.97;5085866;28;19939;-72
2022/11/16 13:08:47;;;;;;;;;;;;;;;-143.57;76.07;51303.00;5085289;28;20415;-72
2022/11/16 13:11:29;;;;;;;;;;;;;;;-143.57;75.77;51310.94;5080112;28;19924;-72
2022/11/16 13:13:58;;;;;;;;;;;;;;;-143.57;75.18;51318.88;5080385;28;21205;-71
2022/11/16 13:16:28;;;;;;;;;;;;;;;-143.57;75.41;51287.09;5084100;28;19939;-71
2022/11/16 13:18:56;;;;;;;;;;;;;;;-143.57;75.39;51299.00;5075716;28;19920;-77
2022/11/16 13:21:41;;;;;;;;;;;;;;;-143.57;75.87;51326.84;5081013;28;20022;-77
2022/11/16 13:24:28;;;;;;;;;;;;;;;-143.57;77.59;51291.06;5081307;28;19923;-74
2022/11/16 13:27:24;;;;;;;;;;;;;;;-143.57;77.28;51297.03;5062627;28;19936;-74
2022/11/16 13:29:50;;;;;;;;;;;;;;;-143.57;77.15;51303.00;5074085;27;20011;-74